createdAt,value
2018-01-31T01:53:34.104Z,98.30
2018-01-31T01:56:03.396Z,98.60
2018-01-31T01:58:31.741Z,98.60
2018-01-31T02:01:00.052Z,98.70
2018-01-31T02:03:29.206Z,99.30
2018-01-31T02:05:57.508Z,99.00
2018-01-31T02:08:25.814Z,99.20
2018-01-31T02:10:54.913Z,99.50
2018-01-31T02:13:24.008Z,99.60
2018-01-31T02:15:52.332Z,99.60
2018-01-31T02:18:21.452Z,99.80
2018-01-31T02:20:49.766Z,99.80
2018-01-31T02:23:18.757Z,99.90
2018-01-31T02:25:47.766Z,99.90
2018-01-31T02:28:16.079Z,99.90
2018-01-31T02:30:45.127Z,99.90
2018-01-31T02:33:13.457Z,99.90
2018-01-31T02:35:42.582Z,99.90
2018-01-31T02:38:16.712Z,99.90
2018-01-31T02:40:45.009Z,99.90
2018-01-31T02:43:13.316Z,99.90
2018-01-31T02:45:41.638Z,99.90
2018-01-31T02:48:10.046Z,99.90
2018-01-31T02:50:38.351Z,99.90
2018-01-31T02:53:07.425Z,99.90
2018-01-31T02:55:35.747Z,99.90
2018-01-31T02:58:04.116Z,99.90
2018-01-31T03:00:32.433Z,99.90
2018-01-31T03:03:01.501Z,99.90
2018-01-31T03:05:29.811Z,99.90
2018-01-31T03:07:59.711Z,99.90
2018-01-31T03:10:28.027Z,99.90
2018-01-31T03:12:56.353Z,99.90
2018-01-31T03:15:24.677Z,99.90
2018-01-31T03:17:53.775Z,99.90
2018-01-31T03:20:22.133Z,99.90
2018-01-31T03:22:50.523Z,99.90
2018-01-31T03:25:18.871Z,99.90
2018-01-31T03:27:47.189Z,99.90
2018-01-31T03:30:15.510Z,99.90
2018-01-31T03:32:43.853Z,99.90
2018-01-31T03:35:12.989Z,99.90
2018-01-31T03:40:16.015Z,99.90
2018-01-31T03:42:44.395Z,99.90
2018-01-31T03:45:12.721Z,99.90
2018-01-31T03:47:41.018Z,99.90
2018-01-31T03:50:10.124Z,99.90
2018-01-31T03:52:38.757Z,99.90
2018-01-31T03:55:07.123Z,99.90
2018-01-31T03:57:35.449Z,99.90
2018-01-31T04:00:03.788Z,99.90
2018-01-31T04:02:32.954Z,99.90
2018-01-31T04:05:02.181Z,99.90
2018-01-31T04:07:30.503Z,99.90
2018-01-31T04:09:58.801Z,99.90
2018-01-31T04:12:27.955Z,99.90
2018-01-31T04:14:56.264Z,99.90
2018-01-31T04:17:24.571Z,99.90
2018-01-31T04:19:52.924Z,99.90
2018-01-31T04:22:21.213Z,99.90
2018-01-31T04:24:49.515Z,99.90
2018-01-31T04:27:17.827Z,99.90
2018-01-31T04:29:46.911Z,99.90
2018-01-31T04:32:15.981Z,99.90
2018-01-31T04:34:44.300Z,99.90
2018-01-31T04:37:13.471Z,99.90
2018-01-31T04:39:41.783Z,99.90
2018-01-31T04:42:10.891Z,99.90
2018-01-31T04:44:39.193Z,99.90
2018-01-31T04:47:07.490Z,99.90
2018-01-31T04:49:36.051Z,99.90
2018-01-31T04:52:04.361Z,99.90
2018-01-31T04:54:32.680Z,99.90
2018-01-31T04:57:01.753Z,99.90
2018-01-31T04:59:30.041Z,99.90
2018-01-31T05:01:58.383Z,99.90
2018-01-31T05:04:26.740Z,99.90
2018-01-31T05:06:55.026Z,99.90
2018-01-31T05:09:23.345Z,99.90
2018-01-31T05:11:51.791Z,99.90
2018-01-31T05:14:20.943Z,99.90
2018-01-31T05:16:49.247Z,99.90
2018-01-31T05:19:17.543Z,99.90
2018-01-31T05:21:46.644Z,99.90
2018-01-31T05:24:15.738Z,99.90
2018-01-31T05:26:44.867Z,99.90
2018-01-31T05:29:13.178Z,99.90
2018-01-31T05:31:41.503Z,99.90
2018-01-31T05:34:10.638Z,99.90
2018-01-31T05:36:38.936Z,99.90
2018-01-31T05:39:07.293Z,99.90
2018-01-31T05:41:36.619Z,99.90
2018-01-31T05:44:04.919Z,99.90
2018-01-31T05:46:33.229Z,99.90
2018-01-31T05:49:01.553Z,99.90
2018-01-31T05:51:29.850Z,99.90
2018-01-31T05:53:58.196Z,99.90
2018-01-31T05:56:26.517Z,99.90
2018-01-31T05:58:54.874Z,99.90
2018-01-31T06:01:23.179Z,99.90
2018-01-31T06:03:51.478Z,99.90
2018-01-31T06:06:19.790Z,99.90
2018-01-31T06:08:48.882Z,99.90
2018-01-31T06:11:17.178Z,99.90
2018-01-31T06:13:47.042Z,99.90
2018-01-31T06:16:15.365Z,99.90
2018-01-31T06:18:44.503Z,99.90
2018-01-31T06:21:12.841Z,99.90
2018-01-31T06:23:41.967Z,99.90
2018-01-31T06:26:10.363Z,99.90
2018-01-31T06:28:38.671Z,99.90
2018-01-31T06:31:06.983Z,99.90
2018-01-31T06:33:35.322Z,99.90
2018-01-31T06:36:03.640Z,99.90
2018-01-31T06:38:31.974Z,99.90
2018-01-31T06:41:00.393Z,99.90
2018-01-31T06:43:28.745Z,99.90
2018-01-31T06:45:57.084Z,99.90
2018-01-31T06:48:25.458Z,99.90
2018-01-31T06:50:53.781Z,99.90
2018-01-31T06:53:22.081Z,99.70
2018-01-31T06:55:50.382Z,99.70
2018-01-31T06:58:18.716Z,99.50
2018-01-31T07:00:47.790Z,99.30
2018-01-31T07:03:16.130Z,99.30
2018-01-31T07:05:44.451Z,99.00
2018-01-31T07:08:12.737Z,98.80
2018-01-31T07:10:41.046Z,98.60
2018-01-31T07:13:09.423Z,98.50
2018-01-31T07:15:38.493Z,98.30
2018-01-31T07:18:07.150Z,98.30
2018-01-31T07:20:35.452Z,98.10
2018-01-31T07:23:03.787Z,97.90
2018-01-31T07:25:32.099Z,97.90
2018-01-31T07:28:00.444Z,97.90
2018-01-31T07:30:28.786Z,97.80
2018-01-31T07:32:57.106Z,97.50
2018-01-31T07:35:25.425Z,97.30
2018-01-31T07:37:53.817Z,97.30
2018-01-31T07:40:22.110Z,97.20
2018-01-31T07:42:50.425Z,97.20
2018-01-31T07:45:19.521Z,96.80
2018-01-31T07:47:48.685Z,96.70
2018-01-31T07:50:17.805Z,96.70
2018-01-31T07:52:46.125Z,96.60
2018-01-31T07:55:14.435Z,96.60
2018-01-31T07:57:42.776Z,96.60
2018-01-31T08:00:11.094Z,96.60
2018-01-31T08:02:40.178Z,96.80
2018-01-31T08:05:08.547Z,96.80
2018-01-31T08:07:36.948Z,96.70
2018-01-31T08:10:05.286Z,96.70
2018-01-31T08:12:33.653Z,96.80
2018-01-31T08:15:01.973Z,97.30
2018-01-31T08:17:30.285Z,96.90
2018-01-31T08:19:58.597Z,97.10
2018-01-31T08:22:26.935Z,97.10
2018-01-31T08:24:55.316Z,97.20
2018-01-31T08:27:23.661Z,97.30
2018-01-31T08:29:52.722Z,97.20
2018-01-31T08:32:21.108Z,97.20
2018-01-31T08:34:49.446Z,97.10
2018-01-31T08:37:18.510Z,97.10
2018-01-31T08:39:48.327Z,97.10
2018-01-31T08:42:17.435Z,97.30
2018-01-31T08:44:45.753Z,97.40
2018-01-31T08:47:14.080Z,97.10
2018-01-31T08:49:43.249Z,96.90
2018-01-31T08:52:11.548Z,96.70
2018-01-31T08:54:39.859Z,96.50
2018-01-31T08:57:08.197Z,96.50
2018-01-31T08:59:37.280Z,96.40
2018-01-31T09:02:05.618Z,96.30
2018-01-31T09:04:33.911Z,96.30
2018-01-31T09:07:02.227Z,96.40
2018-01-31T09:09:30.557Z,96.40
2018-01-31T09:11:58.978Z,96.60
2018-01-31T09:14:28.061Z,96.50
2018-01-31T09:16:56.382Z,96.50
2018-01-31T09:19:24.750Z,96.60
2018-01-31T09:21:53.084Z,97.00
2018-01-31T09:24:21.405Z,97.10
2018-01-31T09:26:50.489Z,98.30
2018-01-31T09:29:19.195Z,98.30
2018-01-31T09:31:48.844Z,99.00
2018-01-31T09:34:17.155Z,99.00
2018-01-31T09:36:45.525Z,99.30
2018-01-31T09:39:13.846Z,99.60
2018-01-31T09:41:42.928Z,99.90
2018-01-31T09:44:11.235Z,99.90
2018-01-31T09:46:39.573Z,99.90
2018-01-31T09:49:07.907Z,99.90
2018-01-31T09:51:36.262Z,99.90
2018-01-31T09:54:04.564Z,99.90
2018-01-31T09:56:33.656Z,99.90
2018-01-31T10:01:19.986Z,99.90
2018-01-31T10:03:49.076Z,99.90
2018-01-31T10:06:17.387Z,99.90
2018-01-31T10:08:45.668Z,99.90
2018-01-31T10:11:13.949Z,99.90
2018-01-31T10:13:42.248Z,99.90
2018-01-31T10:16:10.730Z,99.90
2018-01-31T10:18:39.104Z,99.90
2018-01-31T10:21:07.482Z,99.90
2018-01-31T10:23:35.790Z,99.90
2018-01-31T10:26:04.112Z,99.90
2018-01-31T10:28:32.415Z,99.90
2018-01-31T10:31:01.621Z,99.90
2018-01-31T10:33:29.973Z,99.90
2018-01-31T10:35:59.032Z,99.90
2018-01-31T10:38:27.408Z,99.90
2018-01-31T10:40:55.680Z,99.90
2018-01-31T10:43:23.982Z,99.90
2018-01-31T10:45:53.067Z,99.90
2018-01-31T10:48:21.399Z,99.80
2018-01-31T10:50:49.695Z,99.60
2018-01-31T10:53:18.770Z,99.30
2018-01-31T10:58:16.102Z,99.40
2018-01-31T11:00:44.464Z,99.40
2018-01-31T11:03:13.518Z,99.00
2018-01-31T11:05:41.820Z,99.00
2018-01-31T11:08:10.150Z,98.80
2018-01-31T11:10:38.490Z,98.90
2018-01-31T11:13:06.821Z,98.80
2018-01-31T11:15:35.164Z,98.50
2018-01-31T11:18:04.250Z,98.70
2018-01-31T11:20:32.555Z,98.70
2018-01-31T11:23:00.868Z,98.60
2018-01-31T11:25:29.163Z,98.50
2018-01-31T11:27:57.488Z,98.50
2018-01-31T11:30:26.552Z,98.30
2018-01-31T11:32:54.960Z,98.30
2018-01-31T11:35:23.276Z,98.20
2018-01-31T11:37:51.614Z,98.10
2018-01-31T11:40:20.055Z,98.40
2018-01-31T11:42:49.144Z,98.30
2018-01-31T11:45:17.482Z,98.30
2018-01-31T11:47:45.806Z,98.10
2018-01-31T11:50:14.150Z,97.70
2018-01-31T11:52:42.484Z,97.10
2018-01-31T11:55:10.918Z,96.70
2018-01-31T11:57:39.244Z,96.20
2018-01-31T12:00:07.549Z,96.10
2018-01-31T12:02:35.910Z,95.80
2018-01-31T12:05:04.250Z,95.60
2018-01-31T12:07:32.597Z,95.50
2018-01-31T12:10:00.925Z,95.30
2018-01-31T12:12:48.761Z,94.70
2018-01-31T12:15:26.440Z,94.50
2018-01-31T12:17:55.532Z,95.20
2018-01-31T12:20:42.462Z,95.90
2018-01-31T12:23:28.592Z,95.90
2018-01-31T12:26:14.628Z,96.90
2018-01-31T12:32:36.436Z,97.70
2018-01-31T12:35:23.368Z,97.90
2018-01-31T12:38:09.540Z,97.90
2018-01-31T12:40:37.094Z,98.00
2018-01-31T12:43:05.392Z,98.10
2018-01-31T12:45:32.899Z,98.10
2018-01-31T12:48:06.941Z,98.30
2018-01-31T12:50:53.910Z,98.30
2018-01-31T13:07:18.922Z,98.90
2018-01-31T13:10:05.850Z,97.00
2018-01-31T13:12:52.708Z,96.90
2018-01-31T13:15:38.819Z,97.20
2018-01-31T13:32:05.570Z,96.20
2018-01-31T13:34:52.430Z,96.50
2018-01-31T13:37:44.123Z,96.50
2018-01-31T13:40:35.301Z,96.80
2018-01-31T13:56:58.029Z,97.10
2018-01-31T13:59:44.679Z,97.30
2018-01-31T14:02:31.389Z,96.90
2018-01-31T14:05:17.330Z,96.50
2018-01-31T14:08:04.367Z,96.40
2018-01-31T14:10:50.751Z,96.40
2018-01-31T14:13:31.609Z,96.00
2018-01-31T14:16:17.726Z,96.00
2018-01-31T14:19:03.910Z,95.90
2018-01-31T14:21:50.097Z,95.60
2018-01-31T14:24:36.842Z,95.70
2018-01-31T14:27:22.869Z,95.00
2018-01-31T14:30:09.560Z,93.50
2018-01-31T14:32:55.563Z,93.30
2018-01-31T14:35:42.700Z,93.70
2018-01-31T14:38:10.688Z,93.50
2018-01-31T14:40:38.208Z,93.40
2018-01-31T14:43:05.770Z,93.60
2018-01-31T14:45:33.303Z,93.00
2018-01-31T14:48:01.578Z,92.80
2018-01-31T14:50:29.996Z,92.60
2018-01-31T14:52:57.519Z,92.50
2018-01-31T14:55:25.034Z,92.10
2018-01-31T14:57:52.541Z,92.10
2018-01-31T15:00:20.060Z,91.80
2018-01-31T15:02:47.618Z,91.80
2018-01-31T15:05:15.171Z,91.80
2018-01-31T15:07:42.713Z,91.30
2018-01-31T15:10:11.026Z,91.00
2018-01-31T15:12:38.521Z,90.80
2018-01-31T15:15:06.040Z,90.50
2018-01-31T15:17:33.570Z,90.30
2018-01-31T15:20:01.093Z,90.10
2018-01-31T15:22:28.655Z,90.00
2018-01-31T15:24:57.367Z,90.10
2018-01-31T15:27:24.880Z,90.00
2018-01-31T15:29:52.394Z,90.00
2018-01-31T15:32:19.927Z,90.30
2018-01-31T15:34:47.933Z,90.60
2018-01-31T15:37:15.433Z,90.60
2018-01-31T15:39:43.717Z,90.30
2018-01-31T15:42:11.990Z,90.40
2018-01-31T15:44:40.290Z,90.30
2018-01-31T15:47:08.594Z,90.50
2018-01-31T15:49:36.115Z,90.50
2018-01-31T15:52:03.671Z,90.50
2018-01-31T15:54:31.159Z,90.50
2018-01-31T15:56:59.487Z,90.60
2018-01-31T15:59:27.034Z,90.60
2018-01-31T16:01:54.575Z,90.60
2018-01-31T16:04:22.867Z,90.90
2018-01-31T16:06:50.383Z,90.90
2018-01-31T16:09:19.423Z,91.10
2018-01-31T16:11:46.955Z,91.10
2018-01-31T16:14:14.469Z,91.30
2018-01-31T16:16:42.778Z,91.00
2018-01-31T16:19:28.977Z,91.20
2018-01-31T16:21:57.267Z,91.60
2018-01-31T16:24:25.707Z,91.60
2018-01-31T16:26:54.066Z,90.80
2018-01-31T16:29:46.527Z,90.20
2018-01-31T16:32:32.977Z,90.00
2018-01-31T16:35:02.057Z,89.30
2018-01-31T16:37:30.391Z,89.30
2018-01-31T16:39:58.711Z,88.80
2018-01-31T16:42:27.018Z,88.70
2018-01-31T16:44:56.121Z,87.30
2018-01-31T16:47:25.200Z,87.50
2018-01-31T16:49:54.075Z,87.40
2018-01-31T16:52:22.376Z,87.70
2018-01-31T16:54:52.198Z,89.00
2018-01-31T16:57:20.481Z,89.00
2018-01-31T16:59:48.788Z,88.90
2018-01-31T17:02:17.089Z,89.10
2018-01-31T17:04:45.387Z,88.30
2018-01-31T17:07:13.673Z,88.70
2018-01-31T17:09:41.960Z,89.10
2018-01-31T17:12:10.307Z,90.10
2018-01-31T17:14:38.597Z,89.90
2018-01-31T17:17:06.895Z,89.80
2018-01-31T17:19:35.181Z,89.70
2018-01-31T17:22:03.535Z,90.50
2018-01-31T17:24:31.813Z,90.80
2018-01-31T17:27:00.119Z,91.10
2018-01-31T17:29:28.463Z,91.60
2018-01-31T17:31:56.861Z,92.10
2018-01-31T17:34:25.965Z,91.20
2018-01-31T17:36:55.233Z,91.20
2018-01-31T17:39:23.517Z,91.10
2018-01-31T17:41:52.624Z,91.70
2018-01-31T17:44:22.701Z,91.90
2018-01-31T17:46:51.354Z,91.90
2018-01-31T17:49:19.714Z,92.20
2018-01-31T17:51:48.840Z,93.00
2018-01-31T17:54:17.131Z,93.00
2018-01-31T17:56:45.460Z,93.10
2018-01-31T17:59:13.809Z,93.00
2018-01-31T18:01:42.063Z,93.60
2018-01-31T18:04:10.354Z,93.60
2018-01-31T18:06:38.687Z,93.70
2018-01-31T18:09:07.749Z,94.30
2018-01-31T18:11:36.043Z,94.10
2018-01-31T18:14:04.354Z,94.40
2018-01-31T18:16:32.653Z,94.70
2018-01-31T18:19:01.797Z,95.10
2018-01-31T18:21:30.104Z,95.10
2018-01-31T18:23:58.415Z,95.50
2018-01-31T18:26:27.481Z,96.10
2018-01-31T18:28:55.762Z,96.00
2018-01-31T18:31:24.934Z,96.10
2018-01-31T18:33:53.222Z,96.00
2018-01-31T18:36:21.508Z,96.20
2018-01-31T18:38:49.962Z,96.20
2018-01-31T18:41:18.282Z,96.20
2018-01-31T18:43:46.580Z,96.00
2018-01-31T18:46:14.898Z,95.80
2018-01-31T18:48:43.186Z,95.60
2018-01-31T18:51:11.473Z,95.30
2018-01-31T18:53:39.777Z,95.10
2018-01-31T18:56:08.069Z,95.10
2018-01-31T18:58:36.384Z,95.00
2018-01-31T19:01:05.447Z,94.50
2018-01-31T19:03:34.514Z,94.30
2018-01-31T19:06:02.812Z,94.30
2018-01-31T19:08:31.130Z,94.30
2018-01-31T19:10:59.443Z,94.10
2018-01-31T19:13:27.755Z,93.70
2018-01-31T19:15:56.060Z,93.50
2018-01-31T19:18:24.595Z,93.40
2018-01-31T19:20:52.885Z,93.40
2018-01-31T19:23:21.193Z,93.60
2018-01-31T19:25:49.499Z,93.40
2018-01-31T19:28:17.823Z,93.20
2018-01-31T19:30:46.276Z,93.10
2018-01-31T19:33:14.607Z,92.90
2018-01-31T19:35:43.707Z,93.10
2018-01-31T19:38:12.047Z,93.10
2018-01-31T19:40:41.290Z,93.10
2018-01-31T19:43:09.632Z,93.00
2018-01-31T19:45:38.702Z,93.00
2018-01-31T19:48:07.020Z,93.00
2018-01-31T19:50:36.137Z,93.30
2018-01-31T19:53:04.448Z,93.30
2018-01-31T19:55:32.750Z,93.30
2018-01-31T19:58:01.097Z,93.30
2018-01-31T20:00:29.505Z,93.40
2018-01-31T20:02:58.138Z,93.70
2018-01-31T20:05:27.244Z,94.50
2018-01-31T20:07:56.314Z,94.60
2018-01-31T20:10:24.624Z,94.60
2018-01-31T20:12:53.678Z,94.70
2018-01-31T20:15:21.987Z,94.70
2018-01-31T20:17:50.292Z,94.70
2018-01-31T20:20:18.592Z,94.70
2018-01-31T20:22:46.874Z,94.60
2018-01-31T20:25:15.232Z,94.30
2018-01-31T20:27:43.537Z,93.90
2018-01-31T20:30:12.626Z,93.90
2018-01-31T20:32:40.974Z,94.00
2018-01-31T20:35:09.270Z,94.20
2018-01-31T20:37:38.614Z,94.80
2018-01-31T20:40:06.924Z,94.80
2018-01-31T20:42:35.208Z,94.90
2018-01-31T20:45:03.503Z,94.90
2018-01-31T20:47:31.863Z,95.00
2018-01-31T20:50:00.180Z,95.40
2018-01-31T20:52:29.248Z,94.90
2018-01-31T20:54:57.568Z,94.80
2018-01-31T20:59:52.234Z,94.80
2018-01-31T21:02:20.535Z,94.70
2018-01-31T21:04:48.824Z,94.70
2018-01-31T21:07:17.130Z,94.70
2018-01-31T21:09:46.246Z,94.30
2018-01-31T21:12:14.551Z,94.30
2018-01-31T21:14:42.844Z,93.90
2018-01-31T21:17:11.202Z,93.60
2018-01-31T21:19:39.578Z,93.20
2018-01-31T21:22:07.904Z,92.80
2018-01-31T21:24:36.255Z,92.60
2018-01-31T21:27:04.597Z,92.40
2018-01-31T21:29:33.702Z,92.30
2018-01-31T21:32:02.790Z,92.30
2018-01-31T21:34:31.076Z,92.20
2018-01-31T21:37:00.140Z,92.30
2018-01-31T21:39:28.453Z,92.20
2018-01-31T21:41:57.543Z,92.10
2018-01-31T21:44:25.852Z,92.10
2018-01-31T21:46:54.908Z,92.40
2018-01-31T21:49:23.201Z,92.40
2018-01-31T21:51:51.486Z,92.70
2018-01-31T21:54:19.788Z,93.00
2018-01-31T21:56:48.847Z,93.50
2018-01-31T21:59:17.892Z,93.50
2018-01-31T22:01:46.203Z,93.50
2018-01-31T22:04:14.506Z,93.70
2018-01-31T22:06:42.803Z,93.80
2018-01-31T22:09:11.088Z,94.00
2018-01-31T22:11:39.382Z,94.40
2018-01-31T22:14:08.452Z,94.40
2018-01-31T22:16:36.767Z,94.30
2018-01-31T22:19:05.900Z,93.90
2018-01-31T22:21:34.210Z,93.90
2018-01-31T22:24:02.512Z,93.70
2018-01-31T22:26:30.836Z,93.60
2018-01-31T22:28:59.132Z,93.20
2018-01-31T22:31:27.456Z,93.10
2018-01-31T22:33:55.738Z,93.10
2018-01-31T22:36:24.039Z,92.90
2018-01-31T22:38:53.106Z,92.60
2018-01-31T22:41:21.411Z,92.60
2018-01-31T22:43:49.719Z,92.70
2018-01-31T22:46:18.022Z,92.40
2018-01-31T22:48:46.326Z,92.40
2018-01-31T22:51:14.626Z,92.70
2018-01-31T22:53:42.968Z,92.50
2018-01-31T22:56:12.116Z,92.10
2018-01-31T22:58:40.461Z,91.90
2018-01-31T23:01:08.770Z,91.90
2018-01-31T23:03:37.069Z,91.60
2018-01-31T23:06:06.149Z,91.60
2018-01-31T23:08:34.454Z,91.60
2018-01-31T23:11:02.776Z,91.60
2018-01-31T23:13:31.098Z,91.60
2018-01-31T23:15:59.404Z,91.50
2018-01-31T23:18:28.456Z,91.40
2018-01-31T23:20:56.802Z,91.40
2018-01-31T23:23:25.100Z,91.60
2018-01-31T23:25:53.442Z,91.70
2018-01-31T23:28:22.526Z,91.40
2018-01-31T23:30:50.822Z,91.40
2018-01-31T23:33:19.900Z,91.10
2018-01-31T23:35:48.218Z,91.10
2018-01-31T23:38:16.514Z,91.10
2018-01-31T23:40:44.818Z,91.40
2018-01-31T23:43:13.136Z,91.40
2018-01-31T23:45:41.465Z,91.20
2018-01-31T23:48:09.870Z,91.30
2018-01-31T23:50:38.153Z,91.40
2018-01-31T23:53:06.444Z,91.30
2018-01-31T23:55:34.758Z,91.20
2018-01-31T23:58:05.622Z,91.30
